Time;durP1;ratioP1;P1;durP2;ratioP2;P2;SDS_P1;SDS_P2;PMS_P1;PMS_P2;Temp;Humidity;BMP_temperature;BMP_pressure;BME280_temperature;BME280_humidity;BME280_pressure;Samples;Min_cycle;Max_cycle;Signal;HPM_P1;HPM_P2
2023/07/11 00:01:46;;;;;;;3.28;2.30;;;26.10;91.90;;;;;;7386069;19;20500;-76
2023/07/11 00:04:11;;;;;;;3.22;2.42;;;26.10;91.90;;;;;;7385763;19;20150;-76
2023/07/11 00:06:38;;;;;;;5.28;2.70;;;26.00;92.10;;;;;;7385529;19;20130;-76
2023/07/11 00:09:04;;;;;;;4.47;2.38;;;26.10;92.20;;;;;;7384979;19;20592;-76
2023/07/11 00:11:30;;;;;;;3.03;2.50;;;26.10;92.20;;;;;;7386138;19;20269;-75
2023/07/11 00:13:55;;;;;;;5.13;2.67;;;26.00;92.40;;;;;;7386802;19;20641;-76
2023/07/11 00:16:22;;;;;;;3.13;2.50;;;26.10;92.40;;;;;;7383656;19;20163;-76
2023/07/11 00:18:48;;;;;;;3.88;2.58;;;26.10;93.00;;;;;;7386201;19;20166;-75
2023/07/11 00:21:14;;;;;;;3.95;2.45;;;26.00;93.00;;;;;;7387072;19;20587;-76
2023/07/11 00:23:40;;;;;;;3.45;2.55;;;26.00;92.80;;;;;;7386233;19;20126;-75
2023/07/11 00:26:06;;;;;;;3.45;2.22;;;26.00;92.70;;;;;;7383997;19;20181;-76
2023/07/11 00:28:32;;;;;;;2.60;2.25;;;25.90;92.70;;;;;;7384406;19;20526;-76
2023/07/11 00:30:58;;;;;;;3.60;2.58;;;25.90;92.40;;;;;;7383915;19;20155;-76
2023/07/11 00:33:23;;;;;;;3.88;2.42;;;25.80;92.70;;;;;;7386018;19;20211;-76
2023/07/11 00:35:52;;;;;;;4.82;2.47;;;25.50;93.20;;;;;;7382661;19;20147;-76
2023/07/11 00:38:18;;;;;;;3.45;2.42;;;25.60;92.70;;;;;;7383376;19;20180;-76
2023/07/11 00:40:46;;;;;;;3.13;2.10;;;25.60;92.70;;;;;;7386211;19;20154;-75
2023/07/11 00:43:14;;;;;;;2.75;2.30;;;25.70;92.50;;;;;;7391104;19;20161;-76
2023/07/11 00:46:09;;;;;;;3.13;2.20;;;25.70;92.60;;;;;;7390200;19;20772;-76
2023/07/11 00:48:38;;;;;;;7.35;2.67;;;25.60;92.60;;;;;;7392016;19;20151;-76
2023/07/11 00:51:07;;;;;;;3.53;2.38;;;25.70;93.00;;;;;;7390432;19;20127;-77
2023/07/11 00:53:33;;;;;;;3.95;2.50;;;25.50;93.00;;;;;;7391019;19;20169;-76
2023/07/11 00:56:05;;;;;;;3.28;2.55;;;25.50;93.50;;;;;;7391870;19;20147;-77
2023/07/11 00:58:31;;;;;;;3.05;2.30;;;25.40;93.30;;;;;;7388555;19;20131;-76
2023/07/11 01:00:59;;;;;;;3.30;2.50;;;25.40;93.60;;;;;;7392049;19;20632;-77
2023/07/11 01:03:25;;;;;;;3.58;2.67;;;25.50;93.90;;;;;;7390661;19;20161;-76
2023/07/11 01:05:54;;;;;;;3.42;2.67;;;25.50;93.80;;;;;;7389177;19;20114;-76
2023/07/11 01:08:19;;;;;;;4.40;2.47;;;25.50;94.00;;;;;;7388886;19;20502;-76
2023/07/11 01:10:45;;;;;;;3.78;2.40;;;25.40;94.00;;;;;;7390238;19;20126;-76
2023/07/11 01:13:11;;;;;;;2.50;2.22;;;25.40;93.90;;;;;;7391610;19;20154;-76
2023/07/11 01:15:37;;;;;;;3.72;2.53;;;25.30;93.90;;;;;;7390165;19;20142;-76
2023/07/11 01:18:02;;;;;;;4.10;2.92;;;25.10;94.40;;;;;;7388339;19;20150;-76
2023/07/11 01:20:28;;;;;;;2.65;2.20;;;25.00;94.80;;;;;;7389666;19;20135;-76
2023/07/11 01:22:55;;;;;;;3.40;2.40;;;25.20;94.80;;;;;;7390012;19;20127;-76
2023/07/11 01:25:22;;;;;;;3.42;2.40;;;25.20;94.60;;;;;;7388679;19;20154;-76
2023/07/11 01:27:49;;;;;;;3.85;2.85;;;25.00;95.10;;;;;;7390229;19;20382;-75
2023/07/11 01:30:21;;;;;;;3.13;2.15;;;24.70;95.80;;;;;;7390282;19;20157;-76
2023/07/11 01:32:48;;;;;;;4.45;2.78;;;24.60;96.60;;;;;;7392237;19;20153;-76
2023/07/11 01:35:14;;;;;;;4.47;2.90;;;24.70;96.40;;;;;;7389447;19;20213;-76
2023/07/11 01:37:40;;;;;;;3.35;3.00;;;24.80;96.70;;;;;;7387873;19;20749;-77
2023/07/11 01:40:07;;;;;;;3.67;2.75;;;25.00;96.30;;;;;;7390863;19;20157;-76
2023/07/11 01:42:34;;;;;;;5.97;2.90;;;24.70;96.60;;;;;;7382558;19;20206;-76
2023/07/11 01:45:00;;;;;;;2.95;2.50;;;24.50;97.20;;;;;;7389966;19;20127;-76
2023/07/11 01:47:26;;;;;;;3.92;2.47;;;24.40;97.40;;;;;;7387246;19;20185;-75
2023/07/11 01:49:52;;;;;;;5.53;2.70;;;24.60;97.60;;;;;;7389419;19;20154;-77
2023/07/11 01:52:21;;;;;;;3.45;2.80;;;24.70;96.90;;;;;;7390761;19;20509;-76
2023/07/11 01:54:48;;;;;;;4.10;2.90;;;24.80;96.70;;;;;;7386035;19;20626;-75
2023/07/11 01:57:14;;;;;;;5.32;3.10;;;24.70;96.40;;;;;;7386723;19;20150;-76
2023/07/11 01:59:40;;;;;;;3.63;2.70;;;24.70;96.70;;;;;;7384925;19;20418;-77
2023/07/11 02:02:07;;;;;;;4.38;2.97;;;24.70;96.40;;;;;;7389381;19;20554;-76
2023/07/11 02:04:35;;;;;;;3.08;2.60;;;24.80;96.40;;;;;;7390295;19;20151;-76
2023/07/11 02:07:01;;;;;;;4.28;2.80;;;24.90;96.10;;;;;;7387923;19;20627;-76
2023/07/11 02:09:28;;;;;;;3.85;2.92;;;24.90;96.20;;;;;;7389437;19;20277;-76
2023/07/11 02:11:54;;;;;;;5.07;3.17;;;24.90;96.60;;;;;;7388387;19;20258;-76
2023/07/11 02:14:20;;;;;;;7.47;3.05;;;24.90;96.90;;;;;;7389770;19;20138;-76
2023/07/11 02:16:51;;;;;;;5.35;3.22;;;24.90;96.90;;;;;;7387652;19;20488;-76
2023/07/11 02:19:19;;;;;;;3.88;2.85;;;24.90;96.70;;;;;;7387835;19;20126;-75
2023/07/11 02:21:46;;;;;;;4.50;3.15;;;24.80;96.50;;;;;;7389624;19;20149;-76
2023/07/11 02:24:14;;;;;;;5.10;3.55;;;24.70;97.20;;;;;;7388064;19;20130;-76
2023/07/11 02:26:40;;;;;;;5.05;3.53;;;24.70;97.30;;;;;;7389174;19;20146;-75
2023/07/11 02:29:06;;;;;;;6.68;4.10;;;24.60;97.70;;;;;;7387726;19;20142;-75
2023/07/11 02:31:34;;;;;;;4.95;3.90;;;24.60;97.60;;;;;;7388218;19;20775;-76
2023/07/11 02:34:00;;;;;;;5.20;3.60;;;24.50;98.00;;;;;;7381273;19;20520;-75
2023/07/11 02:36:27;;;;;;;4.35;3.45;;;24.60;98.30;;;;;;7387551;19;20139;-75
2023/07/11 02:38:52;;;;;;;6.65;4.38;;;24.60;98.00;;;;;;7388029;19;20154;-76
2023/07/11 02:41:18;;;;;;;6.60;3.83;;;24.50;98.50;;;;;;7387748;19;20630;-75
2023/07/11 02:43:48;;;;;;;4.90;3.45;;;24.50;98.40;;;;;;7386384;19;20621;-75
2023/07/11 02:46:15;;;;;;;5.63;4.00;;;24.40;98.60;;;;;;7387554;19;20204;-76
2023/07/11 02:48:42;;;;;;;5.78;3.97;;;24.40;98.80;;;;;;7387630;19;20154;-75
2023/07/11 02:51:08;;;;;;;6.05;4.22;;;24.50;98.70;;;;;;7388648;19;20599;-75
2023/07/11 02:53:34;;;;;;;6.45;4.15;;;24.60;98.30;;;;;;7388632;19;20149;-75
2023/07/11 02:55:59;;;;;;;6.05;4.05;;;24.70;98.30;;;;;;7388751;19;20173;-75
2023/07/11 02:58:25;;;;;;;4.80;3.78;;;24.50;98.00;;;;;;7383751;19;20599;-76
2023/07/11 03:00:54;;;;;;;5.28;3.70;;;24.40;98.80;;;;;;7387161;19;20134;-75
2023/07/11 03:03:20;;;;;;;5.68;3.60;;;24.40;98.90;;;;;;7387563;19;20150;-76
2023/07/11 03:05:51;;;;;;;4.70;3.55;;;24.50;98.90;;;;;;7385800;19;20154;-75
2023/07/11 03:08:17;;;;;;;6.68;3.72;;;24.50;98.90;;;;;;7389966;19;20147;-76
2023/07/11 03:10:43;;;;;;;5.15;4.28;;;24.20;99.40;;;;;;7387095;19;20142;-75
2023/07/11 03:13:09;;;;;;;4.75;4.05;;;24.00;99.90;;;;;;7388104;19;20166;-75
2023/07/11 03:15:39;;;;;;;6.03;4.00;;;23.90;99.90;;;;;;7388737;19;20164;-76
2023/07/11 03:18:06;;;;;;;5.10;3.92;;;24.00;99.90;;;;;;7384635;19;20186;-76
2023/07/11 03:20:36;;;;;;;5.47;4.18;;;23.90;99.90;;;;;;7387941;19;20503;-76
2023/07/11 03:23:02;;;;;;;6.70;3.78;;;24.10;99.90;;;;;;7385920;19;20149;-76
2023/07/11 03:25:28;;;;;;;7.85;4.20;;;24.20;99.90;;;;;;7388208;19;20139;-76
2023/07/11 03:27:53;;;;;;;4.88;3.38;;;24.30;99.90;;;;;;7385433;19;20172;-77
2023/07/11 03:30:19;;;;;;;5.93;3.90;;;24.10;99.90;;;;;;7387169;19;20139;-74
2023/07/11 03:32:45;;;;;;;5.65;4.07;;;23.80;99.90;;;;;;7386287;19;20254;-76
2023/07/11 03:35:11;;;;;;;5.75;4.03;;;23.60;99.90;;;;;;7386779;19;20622;-76
2023/07/11 03:37:36;;;;;;;5.25;4.10;;;23.80;99.90;;;;;;7383528;19;20165;-76
2023/07/11 03:40:03;;;;;;;6.75;4.10;;;24.00;99.90;;;;;;7383015;19;20153;-76
2023/07/11 03:42:29;;;;;;;5.38;4.05;;;24.10;99.90;;;;;;7387052;19;20150;-77
2023/07/11 03:44:55;;;;;;;5.88;3.92;;;24.20;99.90;;;;;;7385978;19;20156;-77
2023/07/11 03:47:21;;;;;;;4.97;3.53;;;24.20;99.90;;;;;;7382904;19;20607;-76
2023/07/11 03:49:47;;;;;;;5.63;3.90;;;24.20;99.90;;;;;;7387215;19;20137;-75
2023/07/11 03:52:12;;;;;;;4.22;3.42;;;24.30;99.90;;;;;;7387295;19;20831;-76
2023/07/11 03:54:38;;;;;;;6.60;3.85;;;24.20;99.90;;;;;;7385705;19;20408;-76
2023/07/11 03:57:04;;;;;;;4.28;3.45;;;24.20;99.90;;;;;;7385914;19;20138;-76
2023/07/11 03:59:31;;;;;;;4.90;3.50;;;24.20;99.90;;;;;;7385458;19;20134;-75
2023/07/11 04:01:56;;;;;;;5.47;3.65;;;24.20;99.90;;;;;;7388659;19;20134;-76
2023/07/11 04:04:22;;;;;;;4.60;3.30;;;24.20;99.90;;;;;;7384055;19;20165;-75
2023/07/11 04:06:48;;;;;;;5.35;3.63;;;24.20;99.90;;;;;;7386797;19;20607;-75
2023/07/11 04:09:14;;;;;;;5.75;3.33;;;24.20;99.90;;;;;;7386832;19;20155;-76
2023/07/11 04:11:39;;;;;;;7.18;3.22;;;24.10;99.90;;;;;;7386663;19;20578;-76
2023/07/11 04:14:06;;;;;;;4.78;3.65;;;23.70;99.90;;;;;;7385602;19;20130;-76
2023/07/11 04:16:31;;;;;;;7.10;3.50;;;23.70;99.90;;;;;;7383532;19;20141;-75
2023/07/11 04:18:57;;;;;;;3.80;3.40;;;23.90;99.90;;;;;;7392213;19;20130;-75
2023/07/11 04:21:23;;;;;;;5.68;3.50;;;24.00;99.90;;;;;;7392065;19;20133;-76
2023/07/11 04:23:49;;;;;;;5.90;3.78;;;24.10;99.90;;;;;;7390945;19;20123;-74
2023/07/11 04:26:15;;;;;;;5.28;3.85;;;24.10;99.90;;;;;;7389654;19;20172;-75
2023/07/11 04:28:41;;;;;;;4.35;3.50;;;24.10;99.90;;;;;;7393123;19;20544;-75
2023/07/11 04:31:06;;;;;;;5.88;3.90;;;24.10;99.90;;;;;;7390273;19;20202;-75
2023/07/11 04:33:32;;;;;;;7.85;4.40;;;24.00;99.90;;;;;;7392937;19;20137;-76
2023/07/11 04:36:12;;;;;;;7.13;4.18;;;24.10;99.90;;;;;;7388829;19;20579;-76
2023/07/11 04:38:38;;;;;;;6.43;4.35;;;24.20;99.90;;;;;;7390371;19;20141;-77
2023/07/11 04:41:05;;;;;;;6.80;4.60;;;24.30;99.90;;;;;;7391639;19;20240;-76
2023/07/11 04:43:33;;;;;;;7.00;4.57;;;24.30;99.90;;;;;;7392321;19;20224;-75
2023/07/11 04:46:04;;;;;;;5.78;4.35;;;24.30;99.90;;;;;;7390499;19;20189;-76
2023/07/11 04:48:31;;;;;;;7.82;4.28;;;24.50;99.90;;;;;;7390137;19;20134;-76
2023/07/11 04:51:05;;;;;;;6.15;4.30;;;24.40;99.90;;;;;;7391243;19;20136;-75
2023/07/11 04:53:32;;;;;;;5.50;3.63;;;24.50;99.90;;;;;;7390970;19;20574;-76
2023/07/11 04:56:00;;;;;;;7.30;4.70;;;24.60;99.90;;;;;;7390883;19;20725;-76
2023/07/11 04:58:29;;;;;;;5.70;4.20;;;24.50;99.90;;;;;;7388104;19;20575;-75
2023/07/11 05:01:13;;;;;;;7.72;4.28;;;24.50;99.90;;;;;;7392169;19;20143;-77
2023/07/11 05:03:40;;;;;;;6.10;4.22;;;24.50;99.90;;;;;;7392213;19;20137;-76
2023/07/11 05:06:07;;;;;;;5.32;3.95;;;24.20;99.90;;;;;;7389667;19;20145;-76
2023/07/11 05:08:33;;;;;;;5.15;3.80;;;24.40;99.90;;;;;;7391768;19;20446;-76
2023/07/11 05:11:01;;;;;;;5.97;4.00;;;24.50;99.90;;;;;;7389900;19;20143;-76
2023/07/11 05:13:29;;;;;;;5.45;4.32;;;24.50;99.90;;;;;;7391513;19;20233;-76
2023/07/11 05:16:03;;;;;;;5.70;4.10;;;24.50;99.90;;;;;;7391316;19;20154;-75
2023/07/11 05:18:29;;;;;;;6.97;3.90;;;24.60;99.90;;;;;;7386478;19;20225;-77
2023/07/11 05:20:56;;;;;;;6.68;4.00;;;24.60;99.90;;;;;;7390133;19;20163;-76
2023/07/11 05:23:24;;;;;;;4.32;3.00;;;24.70;99.90;;;;;;7389774;19;20138;-75
2023/07/11 05:25:50;;;;;;;5.05;3.60;;;24.70;99.90;;;;;;7390098;19;20462;-76
2023/07/11 05:28:16;;;;;;;5.55;3.80;;;24.60;99.90;;;;;;7389259;19;20154;-76
2023/07/11 05:30:43;;;;;;;5.80;3.58;;;24.70;99.90;;;;;;7389125;19;20134;-75
2023/07/11 05:33:09;;;;;;;5.07;3.70;;;24.70;99.90;;;;;;7388808;19;20495;-77
2023/07/11 05:35:37;;;;;;;5.00;3.33;;;24.70;99.90;;;;;;7388637;19;20165;-78
2023/07/11 05:38:03;;;;;;;7.30;3.80;;;24.70;99.90;;;;;;7389431;19;20146;-76
2023/07/11 05:40:33;;;;;;;6.78;4.25;;;24.70;99.90;;;;;;7389026;19;20154;-76
2023/07/11 05:42:59;;;;;;;4.22;3.83;;;24.70;99.90;;;;;;7389289;19;20157;-76
2023/07/11 05:45:24;;;;;;;5.72;3.90;;;24.70;99.90;;;;;;7388442;19;20139;-77
2023/07/11 05:47:50;;;;;;;8.43;4.13;;;24.70;99.90;;;;;;7387749;19;20570;-76
2023/07/11 05:50:21;;;;;;;4.45;3.22;;;24.80;99.90;;;;;;7389020;19;20606;-77
2023/07/11 05:52:47;;;;;;;4.63;3.83;;;24.80;99.90;;;;;;7390703;19;20126;-79
2023/07/11 05:55:16;;;;;;;6.18;3.83;;;24.80;99.90;;;;;;7389787;19;20559;-78
2023/07/11 05:57:42;;;;;;;4.05;3.45;;;24.90;99.90;;;;;;7388193;19;20155;-76
2023/07/11 06:00:09;;;;;;;5.40;3.95;;;24.90;99.90;;;;;;7389872;19;20131;-78
2023/07/11 06:02:36;;;;;;;5.45;3.33;;;24.90;99.90;;;;;;7389734;19;20999;-78
2023/07/11 06:05:02;;;;;;;5.65;3.53;;;25.00;99.90;;;;;;7389212;19;20235;-79
2023/07/11 06:07:28;;;;;;;4.95;3.70;;;25.00;99.90;;;;;;7388385;19;20209;-77
2023/07/11 06:09:57;;;;;;;5.70;3.90;;;25.00;99.90;;;;;;7391408;19;20142;-77
2023/07/11 06:12:23;;;;;;;4.90;3.92;;;25.00;99.90;;;;;;7390486;19;20143;-76
2023/07/11 06:14:50;;;;;;;5.82;4.22;;;25.10;99.90;;;;;;7388977;19;20137;-77
2023/07/11 06:17:16;;;;;;;7.90;4.00;;;25.10;99.90;;;;;;7387473;19;20622;-79
2023/07/11 06:19:41;;;;;;;6.35;4.10;;;25.30;99.90;;;;;;7387631;19;20139;-77
2023/07/11 06:22:07;;;;;;;4.65;3.95;;;25.60;99.90;;;;;;7387710;19;20160;-76
2023/07/11 06:24:33;;;;;;;6.75;3.83;;;26.10;99.90;;;;;;7389130;19;20158;-75
2023/07/11 06:26:59;;;;;;;4.30;3.38;;;27.80;99.90;;;;;;7388753;19;20201;-74
2023/07/11 06:29:28;;;;;;;4.25;3.47;;;29.80;98.00;;;;;;7385599;19;20154;-75
2023/07/11 06:31:54;;;;;;;6.60;4.20;;;30.90;95.70;;;;;;7387396;19;20142;-76
2023/07/11 06:34:20;;;;;;;4.55;3.88;;;31.40;94.10;;;;;;7386393;19;20131;-75
2023/07/11 06:36:46;;;;;;;6.40;4.70;;;32.20;92.70;;;;;;7385668;19;20572;-76
2023/07/11 06:39:14;;;;;;;5.20;3.95;;;32.50;91.60;;;;;;7388448;19;20138;-76
2023/07/11 06:41:40;;;;;;;6.93;3.85;;;31.30;92.30;;;;;;7388826;19;20501;-75
2023/07/11 06:44:08;;;;;;;4.93;4.00;;;30.50;93.40;;;;;;7387571;19;20169;-75
2023/07/11 06:46:35;;;;;;;4.95;3.80;;;30.10;94.00;;;;;;7385121;19;20174;-75
2023/07/11 06:49:01;;;;;;;6.47;3.20;;;30.80;94.00;;;;;;7387891;19;20892;-77
2023/07/11 06:51:28;;;;;;;4.80;3.33;;;32.20;91.80;;;;;;7385268;19;20456;-76
2023/07/11 06:53:55;;;;;;;4.97;3.60;;;31.10;92.20;;;;;;7386353;19;20166;-75
2023/07/11 06:56:21;;;;;;;6.30;4.40;;;29.90;93.80;;;;;;7388414;19;20470;-76
2023/07/11 06:58:49;;;;;;;5.63;3.50;;;29.30;94.60;;;;;;7384754;19;20177;-75
2023/07/11 07:01:17;;;;;;;5.55;4.22;;;28.60;95.70;;;;;;7387364;19;20150;-75
2023/07/11 07:03:43;;;;;;;4.00;3.53;;;28.10;96.70;;;;;;7388549;19;20135;-76
2023/07/11 07:06:12;;;;;;;6.82;4.35;;;28.00;97.40;;;;;;7385964;19;20603;-76
2023/07/11 07:08:38;;;;;;;5.88;3.60;;;28.30;97.40;;;;;;7388549;19;20142;-76
2023/07/11 07:11:04;;;;;;;6.75;3.50;;;28.60;96.90;;;;;;7386212;19;20156;-76
2023/07/11 07:13:30;;;;;;;5.72;3.65;;;28.80;96.40;;;;;;7387429;19;20514;-76
2023/07/11 07:15:59;;;;;;;6.97;3.70;;;29.40;95.90;;;;;;7386094;19;20165;-75
2023/07/11 07:18:27;;;;;;;7.25;3.80;;;30.20;94.50;;;;;;7385090;19;20139;-75
2023/07/11 07:20:53;;;;;;;5.43;3.70;;;30.80;93.70;;;;;;7387333;19;20146;-76
2023/07/11 07:23:20;;;;;;;4.28;3.35;;;30.90;93.00;;;;;;7387348;19;20143;-76
2023/07/11 07:25:51;;;;;;;5.13;3.50;;;30.50;93.20;;;;;;7386322;19;20150;-76
2023/07/11 07:28:17;;;;;;;4.43;3.38;;;29.70;94.00;;;;;;7386202;19;20149;-76
2023/07/11 07:30:54;;;;;;;4.88;3.40;;;29.60;94.30;;;;;;7387380;19;20226;-76
2023/07/11 07:33:23;;;;;;;5.63;3.65;;;29.90;94.00;;;;;;7386151;19;20165;-80
2023/07/11 07:35:53;;;;;;;5.35;3.28;;;30.40;93.50;;;;;;7385638;19;20135;-79
2023/07/11 07:38:19;;;;;;;7.32;4.07;;;31.00;92.80;;;;;;7385475;19;20206;-79
2023/07/11 07:40:54;;;;;;;6.13;3.50;;;31.70;92.10;;;;;;7388196;19;20170;-79
2023/07/11 07:43:21;;;;;;;3.75;3.35;;;32.30;90.80;;;;;;7387425;19;20158;-78
2023/07/11 07:45:50;;;;;;;7.15;3.85;;;32.40;90.20;;;;;;7385258;19;20206;-77
2023/07/11 07:48:17;;;;;;;6.35;3.60;;;32.30;90.20;;;;;;7383781;19;20168;-77
2023/07/11 07:50:43;;;;;;;5.32;3.47;;;31.90;90.30;;;;;;7385571;19;20134;-76
2023/07/11 07:53:09;;;;;;;4.63;3.85;;;31.70;90.60;;;;;;7384175;19;20141;-76
2023/07/11 07:55:35;;;;;;;6.05;3.90;;;31.70;90.50;;;;;;7386786;19;20135;-78
2023/07/11 07:58:01;;;;;;;5.05;3.58;;;31.70;90.40;;;;;;7381149;19;20971;-76
2023/07/11 08:00:27;;;;;;;5.10;3.47;;;31.70;90.60;;;;;;7385491;19;20131;-77
2023/07/11 08:02:53;;;;;;;6.47;3.50;;;31.80;90.40;;;;;;7384463;19;20154;-78
2023/07/11 08:05:20;;;;;;;5.93;3.65;;;31.90;90.20;;;;;;7386192;19;20153;-77
2023/07/11 08:07:46;;;;;;;5.78;3.67;;;32.00;90.00;;;;;;7384563;19;20153;-76
2023/07/11 08:10:12;;;;;;;5.68;3.53;;;31.90;89.80;;;;;;7385000;19;20217;-77
2023/07/11 08:12:38;;;;;;;7.22;3.67;;;31.60;90.10;;;;;;7384390;19;20147;-77
2023/07/11 08:15:04;;;;;;;3.65;3.25;;;31.40;90.20;;;;;;7385590;19;20157;-77
2023/07/11 08:17:30;;;;;;;4.57;3.85;;;31.90;89.80;;;;;;7382977;19;20179;-77
2023/07/11 08:19:56;;;;;;;4.82;3.45;;;32.20;88.60;;;;;;7384571;19;20139;-77
2023/07/11 08:22:23;;;;;;;5.68;3.75;;;32.20;87.90;;;;;;7384195;19;20180;-85
2023/07/11 08:24:48;;;;;;;4.40;3.80;;;32.20;87.60;;;;;;7383283;19;20674;-86
2023/07/11 08:27:14;;;;;;;6.18;3.30;;;32.20;87.30;;;;;;7386381;19;20146;-85
2023/07/11 08:29:44;;;;;;;5.00;3.38;;;32.00;87.20;;;;;;7388962;19;20158;-85
2023/07/11 08:32:11;;;;;;;5.10;3.67;;;32.30;86.90;;;;;;7389659;19;20154;-87
2023/07/11 08:34:37;;;;;;;5.05;3.38;;;32.60;86.10;;;;;;7385316;19;20134;-88
2023/07/11 08:37:03;;;;;;;6.57;3.80;;;32.90;85.50;;;;;;7383495;19;20131;-80
2023/07/11 08:39:29;;;;;;;5.72;3.47;;;33.20;85.00;;;;;;7386194;19;20166;-80
2023/07/11 08:41:55;;;;;;;6.38;3.65;;;33.40;83.80;;;;;;7384033;19;20598;-80
2023/07/11 08:44:29;;;;;;;7.05;3.33;;;33.70;83.40;;;;;;7384490;19;20143;-79
2023/07/11 08:47:06;;;;;;;7.55;4.03;;;33.80;82.80;;;;;;7381681;19;20257;-79
2023/07/11 08:49:55;;;;;;;8.60;3.78;;;33.40;82.70;;;;;;7384745;19;20142;-80
2023/07/11 08:52:22;;;;;;;4.25;3.08;;;33.00;83.70;;;;;;7383199;19;20143;-80
2023/07/11 08:55:02;;;;;;;5.10;3.50;;;32.80;84.40;;;;;;7386684;19;20126;-79
2023/07/11 08:57:32;;;;;;;5.00;3.60;;;32.70;85.20;;;;;;7380611;19;20165;-80
2023/07/11 09:00:14;;;;;;;6.03;3.60;;;32.60;85.50;;;;;;7383536;19;20135;-81
2023/07/11 09:02:55;;;;;;;4.60;3.65;;;32.90;85.80;;;;;;7384790;19;20150;-81
2023/07/11 09:05:39;;;;;;;6.90;4.20;;;32.90;86.20;;;;;;7391988;19;20202;-81
2023/07/11 09:08:05;;;;;;;6.90;4.50;;;32.80;86.60;;;;;;7391441;19;20579;-84
2023/07/11 09:10:40;;;;;;;7.63;4.60;;;32.80;87.30;;;;;;7388793;19;20134;-81
2023/07/11 09:13:20;;;;;;;4.93;3.78;;;32.80;87.60;;;;;;7389685;19;20478;-83
2023/07/11 09:15:59;;;;;;;9.05;4.03;;;32.70;88.30;;;;;;7391534;19;20126;-80
2023/07/11 09:18:46;;;;;;;3.53;3.22;;;32.60;88.70;;;;;;7390643;19;20650;-82
2023/07/11 09:21:19;;;;;;;5.28;3.70;;;32.40;89.60;;;;;;7389570;19;20160;-82
2023/07/11 09:24:01;;;;;;;7.57;3.70;;;32.80;89.20;;;;;;7389514;19;20153;-81
2023/07/11 09:26:35;;;;;;;5.68;3.55;;;33.00;88.60;;;;;;7388635;19;20622;-80
2023/07/11 09:29:08;;;;;;;5.75;3.50;;;33.10;87.60;;;;;;7389144;19;20629;-80
2023/07/11 09:31:55;;;;;;;4.95;3.53;;;32.80;88.70;;;;;;7391496;19;20141;-80
2023/07/11 09:34:35;;;;;;;6.30;4.10;;;32.70;89.20;;;;;;7391745;19;20146;-80
2023/07/11 09:37:10;;;;;;;4.13;3.45;;;33.00;88.20;;;;;;7388482;19;20143;-81
2023/07/11 09:39:44;;;;;;;4.50;3.83;;;33.10;87.50;;;;;;7389357;19;20127;-81
2023/07/11 09:42:22;;;;;;;5.25;4.22;;;32.90;87.80;;;;;;7390497;19;20126;-80
2023/07/11 09:45:05;;;;;;;5.25;4.10;;;33.20;88.20;;;;;;7390497;19;20159;-79
2023/07/11 09:47:32;;;;;;;6.10;4.20;;;33.40;87.40;;;;;;7386097;19;20162;-79
2023/07/11 09:50:00;;;;;;;6.18;5.05;;;33.40;87.30;;;;;;7385335;19;20254;-81
2023/07/11 09:52:27;;;;;;;6.00;5.10;;;33.50;86.70;;;;;;7386402;19;20506;-83
2023/07/11 09:54:54;;;;;;;5.13;4.10;;;33.40;86.80;;;;;;7389375;19;20568;-82
2023/07/11 09:57:21;;;;;;;7.20;5.53;;;33.20;87.00;;;;;;7387898;19;20158;-80
2023/07/11 09:59:58;;;;;;;4.32;3.90;;;33.20;88.10;;;;;;7389522;19;20591;-80
2023/07/11 10:02:24;;;;;;;3.97;3.53;;;33.50;86.20;;;;;;7384993;19;20146;-80
2023/07/11 10:04:54;;;;;;;6.63;3.83;;;33.70;85.50;;;;;;7390740;19;20143;-81
2023/07/11 10:07:22;;;;;;;7.95;3.97;;;33.80;84.70;;;;;;7399747;19;20163;-81
2023/07/11 10:09:50;;;;;;;4.93;4.10;;;33.60;85.30;;;;;;7397758;19;20163;-80
2023/07/11 10:12:24;;;;;;;4.30;3.90;;;33.50;85.50;;;;;;7393709;19;20135;-81
2023/07/11 10:14:59;;;;;;;4.15;3.40;;;33.50;86.70;;;;;;7389920;19;20139;-81
2023/07/11 10:17:36;;;;;;;7.35;4.30;;;33.60;85.90;;;;;;7384827;19;20130;-81
2023/07/11 10:20:06;;;;;;;4.07;3.65;;;33.80;85.60;;;;;;7387362;19;20158;-80
2023/07/11 10:22:33;;;;;;;6.75;3.88;;;33.90;85.20;;;;;;7387969;19;20308;-81
2023/07/11 10:25:15;;;;;;;6.10;4.10;;;34.00;84.90;;;;;;7387985;19;20705;-78
2023/07/11 10:27:44;;;;;;;5.15;3.95;;;34.00;84.70;;;;;;7388135;19;20173;-79
2023/07/11 10:30:18;;;;;;;5.03;3.45;;;34.00;85.40;;;;;;7389488;19;20150;-78
2023/07/11 10:32:56;;;;;;;4.35;3.33;;;34.20;85.00;;;;;;7389496;19;21101;-78
2023/07/11 10:35:23;;;;;;;6.78;4.18;;;34.60;82.80;;;;;;7388733;19;20141;-80
2023/07/11 10:38:16;;;;;;;5.05;3.83;;;34.70;81.40;;;;;;7387701;19;20492;-81
2023/07/11 10:40:49;;;;;;;4.88;3.88;;;34.60;82.10;;;;;;7387956;19;20166;-79
2023/07/11 10:43:32;;;;;;;4.25;3.60;;;34.60;82.00;;;;;;7387888;19;20147;-80
2023/07/11 10:46:13;;;;;;;4.82;4.15;;;34.60;81.20;;;;;;7386120;19;20134;-79
2023/07/11 10:48:45;;;;;;;6.18;4.75;;;34.80;81.10;;;;;;7386594;19;20143;-79
2023/07/11 10:51:17;;;;;;;4.00;3.60;;;34.70;82.20;;;;;;7389511;19;20222;-78
2023/07/11 10:53:48;;;;;;;7.07;4.20;;;34.70;81.60;;;;;;7386300;19;20135;-79
2023/07/11 10:56:22;;;;;;;5.40;4.00;;;34.70;81.60;;;;;;7385592;19;20166;-79
2023/07/11 10:58:48;;;;;;;5.03;3.60;;;34.80;81.60;;;;;;7385225;19;20130;-79
2023/07/11 11:01:29;;;;;;;5.03;4.20;;;34.90;81.60;;;;;;7386489;19;20610;-79
2023/07/11 11:04:30;;;;;;;5.32;3.92;;;34.90;81.40;;;;;;7385315;19;20143;-78
2023/07/11 11:07:09;;;;;;;6.65;4.15;;;34.40;81.60;;;;;;7385326;19;20146;-79
2023/07/11 11:10:05;;;;;;;6.00;4.05;;;34.00;82.50;;;;;;7387092;19;20142;-79
2023/07/11 11:12:41;;;;;;;7.10;4.47;;;33.80;83.00;;;;;;7385075;19;20167;-80
2023/07/11 11:15:12;;;;;;;6.35;4.22;;;33.70;83.70;;;;;;7385726;19;20475;-79
2023/07/11 11:17:46;;;;;;;6.10;4.43;;;33.60;84.20;;;;;;7385116;19;20160;-81
2023/07/11 11:20:22;;;;;;;6.15;4.10;;;33.60;84.40;;;;;;7386485;19;20138;-81
2023/07/11 11:23:22;;;;;;;7.07;4.38;;;33.70;84.30;;;;;;7387237;19;20145;-81
2023/07/11 11:25:57;;;;;;;5.18;4.18;;;33.60;84.30;;;;;;7388388;19;20461;-81
2023/07/11 11:28:37;;;;;;;5.30;3.97;;;33.40;85.30;;;;;;7384856;19;20686;-77
2023/07/11 11:31:15;;;;;;;6.13;4.90;;;33.30;86.10;;;;;;7385958;19;20161;-79
2023/07/11 11:34:18;;;;;;;6.03;4.05;;;33.60;85.80;;;;;;7387633;19;20154;-80
2023/07/11 11:37:14;;;;;;;6.25;3.97;;;33.80;85.50;;;;;;7386151;19;20622;-81
2023/07/11 11:40:01;;;;;;;5.07;3.85;;;34.20;84.80;;;;;;7385372;19;20250;-78
2023/07/11 11:42:34;;;;;;;6.55;3.85;;;34.50;83.90;;;;;;7386851;19;20157;-78
2023/07/11 11:45:07;;;;;;;4.45;4.05;;;34.50;83.80;;;;;;7386647;19;20142;-79
2023/07/11 11:47:36;;;;;;;5.65;4.43;;;34.70;83.50;;;;;;7382777;19;20258;-78
2023/07/11 11:50:03;;;;;;;4.68;3.78;;;34.80;83.20;;;;;;7384391;19;20158;-79
2023/07/11 11:52:34;;;;;;;4.68;4.22;;;34.80;82.60;;;;;;7387235;19;20135;-80
2023/07/11 11:55:00;;;;;;;7.07;3.90;;;34.80;81.90;;;;;;7385782;19;20387;-79
2023/07/11 11:57:35;;;;;;;4.88;3.83;;;34.80;82.00;;;;;;7383816;19;20598;-79
2023/07/11 12:00:02;;;;;;;4.97;3.65;;;34.70;81.80;;;;;;7384265;19;20682;-78
2023/07/11 12:02:34;;;;;;;4.43;4.00;;;34.50;81.20;;;;;;7385872;19;20187;-77
2023/07/11 12:05:02;;;;;;;5.88;4.07;;;34.70;80.90;;;;;;7385060;19;20150;-79
2023/07/11 12:07:31;;;;;;;5.90;5.30;;;34.90;81.20;;;;;;7385695;19;20135;-78
2023/07/11 12:09:57;;;;;;;4.72;3.78;;;34.70;81.10;;;;;;7385608;19;20149;-78
2023/07/11 12:12:25;;;;;;;4.97;4.40;;;34.50;81.20;;;;;;7384918;19;20131;-78
2023/07/11 12:14:54;;;;;;;11.75;10.25;;;34.40;82.40;;;;;;7384705;19;20135;-79
2023/07/11 12:17:29;;;;;;;8.43;6.32;;;34.30;83.50;;;;;;7383398;19;20180;-80
2023/07/11 12:20:01;;;;;;;6.68;3.90;;;34.20;83.70;;;;;;7384818;19;20205;-80
2023/07/11 12:22:30;;;;;;;5.13;4.63;;;34.10;84.20;;;;;;7384205;19;20150;-80
2023/07/11 12:25:18;;;;;;;4.80;3.80;;;34.20;83.30;;;;;;7385277;19;20138;-79
2023/07/11 12:27:47;;;;;;;4.93;4.25;;;34.30;84.40;;;;;;7385668;19;20210;-80
2023/07/11 12:30:13;;;;;;;5.45;4.30;;;34.30;83.10;;;;;;7382288;19;20146;-79
2023/07/11 12:32:43;;;;;;;6.57;5.88;;;34.10;83.80;;;;;;7384336;19;20131;-79
2023/07/11 12:35:09;;;;;;;4.88;4.13;;;34.10;84.20;;;;;;7382585;19;20159;-79
2023/07/11 12:37:53;;;;;;;15.25;12.73;;;34.10;83.50;;;;;;7385749;19;20134;-79
2023/07/11 12:40:49;;;;;;;5.28;4.63;;;34.00;83.50;;;;;;7389215;19;20734;-78
2023/07/11 12:43:28;;;;;;;6.55;4.35;;;34.00;83.20;;;;;;7392200;19;20131;-79
2023/07/11 12:45:57;;;;;;;4.80;3.95;;;34.00;83.80;;;;;;7388744;19;20138;-79
2023/07/11 12:48:38;;;;;;;6.85;4.45;;;34.30;83.60;;;;;;7388572;19;20135;-80
2023/07/11 12:51:06;;;;;;;6.65;4.30;;;34.60;82.00;;;;;;7392975;19;20130;-78
2023/07/11 12:53:38;;;;;;;5.90;4.53;;;34.40;81.90;;;;;;7391809;19;20161;-80
2023/07/11 12:56:12;;;;;;;5.15;4.28;;;34.30;82.30;;;;;;7390738;19;20135;-79
2023/07/11 12:58:40;;;;;;;7.97;4.32;;;34.40;81.70;;;;;;7389819;19;20142;-80